Time;durP1;ratioP1;P1;durP2;ratioP2;P2;SDS_P1;SDS_P2;PMS_P1;PMS_P2;Temp;Humidity;BMP_temperature;BMP_pressure;BME280_temperature;BME280_humidity;BME280_pressure;Samples;Min_cycle;Max_cycle;Signal;HPM_P1;HPM_P2
2023/03/20 00:00:52;;;;;;;;;;;;;;;6.09;60.74;95232.84;4998036;28;1546;-71
2023/03/20 00:03:23;;;;;;;;;;;;;;;6.07;60.20;95226.88;4997722;28;1319;-71
2023/03/20 00:05:53;;;;;;;;;;;;;;;6.07;60.37;95232.38;4998358;28;1190;-71
2023/03/20 00:08:21;;;;;;;;;;;;;;;6.08;60.79;95224.94;4998186;28;1221;-71
2023/03/20 00:10:50;;;;;;;;;;;;;;;6.05;61.06;95226.38;4997856;28;1906;-70
2023/03/20 00:13:21;;;;;;;;;;;;;;;5.98;61.12;95213.16;4997874;28;1454;-70
2023/03/20 00:15:53;;;;;;;;;;;;;;;5.97;61.34;95211.56;4997877;28;1374;-70
2023/03/20 00:18:21;;;;;;;;;;;;;;;5.94;61.10;95208.66;4997646;28;1275;-71
2023/03/20 00:20:52;;;;;;;;;;;;;;;5.95;61.12;95210.25;4998174;28;1157;-71
2023/03/20 00:23:19;;;;;;;;;;;;;;;5.89;61.35;95223.28;4997843;28;1183;-71
2023/03/20 00:25:47;;;;;;;;;;;;;;;5.74;61.37;95210.84;4997759;28;1141;-71
2023/03/20 00:28:30;;;;;;;;;;;;;;;5.61;62.00;95211.78;4997365;28;1290;-71
2023/03/20 00:30:58;;;;;;;;;;;;;;;5.57;61.99;95208.06;4994889;28;1997;-71
2023/03/20 00:33:27;;;;;;;;;;;;;;;5.58;62.13;95209.69;4997584;28;1120;-71
2023/03/20 00:35:57;;;;;;;;;;;;;;;5.56;61.97;95203.72;4997550;28;1101;-71
2023/03/20 00:38:25;;;;;;;;;;;;;;;5.46;61.67;95207.56;4997395;28;1291;-71
2023/03/20 00:40:52;;;;;;;;;;;;;;;5.50;61.76;95200.31;4997625;28;1188;-70
2023/03/20 00:43:19;;;;;;;;;;;;;;;5.50;61.62;95205.78;4997700;28;1404;-70
2023/03/20 00:45:48;;;;;;;;;;;;;;;5.50;62.38;95194.84;4997507;28;1472;-70
2023/03/20 00:48:18;;;;;;;;;;;;;;;5.47;61.80;95200.94;4997564;28;1236;-70
2023/03/20 00:50:48;;;;;;;;;;;;;;;5.48;61.95;95197.13;4997279;28;1977;-70
2023/03/20 00:53:15;;;;;;;;;;;;;;;5.45;62.24;95210.63;4997221;28;1153;-70
2023/03/20 00:55:44;;;;;;;;;;;;;;;5.39;62.05;95198.19;4996875;28;1184;-71
2023/03/20 00:58:12;;;;;;;;;;;;;;;5.31;61.78;95202.53;4997176;28;1070;-71
2023/03/20 01:00:42;;;;;;;;;;;;;;;5.29;62.43;95208.28;4997305;28;1170;-71
2023/03/20 01:03:17;;;;;;;;;;;;;;;5.33;62.33;95189.31;4996537;28;1705;-71
2023/03/20 01:05:50;;;;;;;;;;;;;;;5.27;62.15;95190.59;4997227;28;1249;-71
2023/03/20 01:08:21;;;;;;;;;;;;;;;5.22;62.39;95190.72;4997036;28;1464;-71
2023/03/20 01:10:49;;;;;;;;;;;;;;;5.24;62.66;95196.69;4996714;28;1910;-71
2023/03/20 01:13:21;;;;;;;;;;;;;;;5.24;62.52;95185.75;4996651;28;1167;-71
2023/03/20 01:15:54;;;;;;;;;;;;;;;5.13;62.53;95185.22;4996729;28;1293;-71
2023/03/20 01:18:23;;;;;;;;;;;;;;;5.00;62.12;95184.19;4996779;28;1081;-71
2023/03/20 01:20:55;;;;;;;;;;;;;;;4.93;62.75;95175.63;4996453;28;1154;-70
2023/03/20 01:23:25;;;;;;;;;;;;;;;5.01;63.09;95182.25;4996385;28;1266;-70
2023/03/20 01:25:53;;;;;;;;;;;;;;;5.05;63.02;95175.88;4996802;28;1102;-71
2023/03/20 01:28:22;;;;;;;;;;;;;;;5.13;62.81;95176.22;4996541;28;1318;-70
2023/03/20 01:30:52;;;;;;;;;;;;;;;5.12;62.58;95177.34;4996101;28;1898;-70
2023/03/20 01:33:21;;;;;;;;;;;;;;;5.07;62.57;95176.34;4996483;28;1199;-70
2023/03/20 01:35:49;;;;;;;;;;;;;;;5.10;62.42;95182.31;4997091;28;1115;-70
2023/03/20 01:38:23;;;;;;;;;;;;;;;5.09;62.70;95181.53;4997373;28;978;-70
2023/03/20 01:40:56;;;;;;;;;;;;;;;5.11;62.39;95183.94;4996644;28;1082;-70
2023/03/20 01:43:24;;;;;;;;;;;;;;;5.11;62.29;95184.72;4996161;28;1084;-70
2023/03/20 01:46:02;;;;;;;;;;;;;;;5.14;62.10;95188.78;4996021;28;1399;-70
2023/03/20 01:48:37;;;;;;;;;;;;;;;5.13;62.08;95185.22;4996120;28;1168;-71
2023/03/20 01:51:05;;;;;;;;;;;;;;;5.06;62.28;95190.34;4996011;28;1914;-71
2023/03/20 01:53:35;;;;;;;;;;;;;;;5.09;62.21;95191.66;4996016;28;1082;-70
2023/03/20 01:56:04;;;;;;;;;;;;;;;5.09;62.44;95188.91;4996036;28;1388;-70
2023/03/20 01:58:35;;;;;;;;;;;;;;;4.98;62.54;95189.19;4996655;28;1091;-71
2023/03/20 02:01:05;;;;;;;;;;;;;;;4.93;63.04;95196.72;4995862;28;1121;-70
2023/03/20 02:03:33;;;;;;;;;;;;;;;4.92;62.80;95187.69;4994461;28;1212;-70
2023/03/20 02:06:01;;;;;;;;;;;;;;;4.86;62.85;95182.69;4996086;28;1225;-70
2023/03/20 02:08:32;;;;;;;;;;;;;;;4.88;63.36;95178.53;4995784;28;1061;-70
2023/03/20 02:11:05;;;;;;;;;;;;;;;4.83;63.30;95186.88;4995500;28;1898;-71
2023/03/20 02:13:35;;;;;;;;;;;;;;;4.68;62.91;95188.03;4995589;28;1130;-71
2023/03/20 02:16:06;;;;;;;;;;;;;;;4.68;63.33;95188.03;4995500;28;1227;-71
2023/03/20 02:18:35;;;;;;;;;;;;;;;4.71;63.35;95187.41;4995751;28;1428;-71
2023/03/20 02:21:11;;;;;;;;;;;;;;;4.64;62.74;95183.53;4995417;28;1430;-71
2023/03/20 02:23:55;;;;;;;;;;;;;;;4.56;63.28;95188.63;4995248;28;1109;-71
2023/03/20 02:26:34;;;;;;;;;;;;;;;4.55;63.64;95192.47;4976352;28;1518;-71
2023/03/20 02:29:28;;;;;;;;;;;;;;;4.62;64.16;95194.78;4995246;28;1179;-71
2023/03/20 02:32:14;;;;;;;;;;;;;;;4.68;63.53;95198.16;4995511;28;1910;-71
2023/03/20 02:34:53;;;;;;;;;;;;;;;4.66;63.89;95190.31;4995172;28;1215;-71
2023/03/20 02:37:46;;;;;;;;;;;;;;;4.64;63.79;95189.78;4995240;28;1299;-71
2023/03/20 02:40:20;;;;;;;;;;;;;;;4.57;63.90;95190.25;4965853;28;1226;-71
2023/03/20 02:42:54;;;;;;;;;;;;;;;4.48;63.46;95181.19;4995660;28;1098;-70
2023/03/20 02:45:22;;;;;;;;;;;;;;;4.53;63.92;95185.72;4996115;28;1041;-70
2023/03/20 02:47:51;;;;;;;;;;;;;;;4.56;63.70;95190.56;4996164;28;946;-70
2023/03/20 02:50:22;;;;;;;;;;;;;;;4.55;63.88;95181.56;4995113;28;1192;-72
2023/03/20 02:52:53;;;;;;;;;;;;;;;4.48;63.43;95185.84;4995110;28;1902;-71
2023/03/20 02:55:28;;;;;;;;;;;;;;;4.48;64.45;95186.66;4994719;28;1186;-71
2023/03/20 02:57:58;;;;;;;;;;;;;;;4.48;64.46;95181.19;4995008;28;1336;-72
2023/03/20 03:00:29;;;;;;;;;;;;;;;4.54;64.23;95179.94;4995374;28;1192;-72
2023/03/20 03:03:00;;;;;;;;;;;;;;;4.57;64.11;95178.50;4994748;28;1532;-72
2023/03/20 03:05:52;;;;;;;;;;;;;;;4.52;64.42;95178.63;4994899;28;1083;-72
2023/03/20 03:08:21;;;;;;;;;;;;;;;4.46;64.31;95180.69;4994888;28;1261;-72
2023/03/20 03:10:55;;;;;;;;;;;;;;;4.34;64.88;95181.25;4994789;28;1152;-71
2023/03/20 03:13:23;;;;;;;;;;;;;;;4.35;64.68;95179.31;4994747;28;1918;-71
2023/03/20 03:15:52;;;;;;;;;;;;;;;4.35;64.76;95176.59;4994956;28;1199;-72
2023/03/20 03:18:20;;;;;;;;;;;;;;;4.33;64.41;95179.63;4994864;28;1173;-72
2023/03/20 03:20:48;;;;;;;;;;;;;;;4.27;64.46;95175.41;4994983;28;1276;-72
2023/03/20 03:23:20;;;;;;;;;;;;;;;4.27;64.69;95178.13;4994498;28;1217;-72
2023/03/20 03:25:50;;;;;;;;;;;;;;;4.27;64.93;95169.16;4994471;28;1113;-72
2023/03/20 03:28:26;;;;;;;;;;;;;;;4.31;64.70;95172.88;4995213;28;1343;-71
2023/03/20 03:30:54;;;;;;;;;;;;;;;4.32;64.55;95177.19;4994762;28;1186;-72
2023/03/20 03:33:23;;;;;;;;;;;;;;;4.35;64.51;95176.59;4994742;28;1911;-71
2023/03/20 03:35:51;;;;;;;;;;;;;;;4.37;64.09;95187.22;4994395;28;1209;-72
2023/03/20 03:38:23;;;;;;;;;;;;;;;4.40;64.29;95179.22;4994393;28;1107;-72
2023/03/20 03:40:49;;;;;;;;;;;;;;;4.41;64.15;95183.53;4994555;28;1423;-72
2023/03/20 03:43:18;;;;;;;;;;;;;;;4.41;64.21;95180.81;4995551;28;972;-72
2023/03/20 03:45:52;;;;;;;;;;;;;;;4.40;64.50;95178.41;4994589;28;1184;-72
2023/03/20 03:48:20;;;;;;;;;;;;;;;4.38;64.56;95175.16;4995202;28;1040;-72
2023/03/20 03:50:48;;;;;;;;;;;;;;;4.28;64.83;95171.56;4994810;28;980;-72
2023/03/20 03:53:17;;;;;;;;;;;;;;;4.21;64.55;95173.94;4995164;28;1993;-72
2023/03/20 03:55:46;;;;;;;;;;;;;;;4.19;64.99;95169.91;4994475;28;1153;-72
2023/03/20 03:58:15;;;;;;;;;;;;;;;4.19;64.92;95169.91;4994820;28;1117;-71
2023/03/20 04:00:46;;;;;;;;;;;;;;;4.19;64.99;95161.72;4994751;28;1101;-71
2023/03/20 04:03:19;;;;;;;;;;;;;;;4.17;65.49;95169.38;4994550;28;1263;-73
2023/03/20 04:05:47;;;;;;;;;;;;;;;4.22;64.66;95170.09;4994473;28;1305;-73
2023/03/20 04:08:16;;;;;;;;;;;;;;;4.17;65.30;95164.72;4994904;28;1294;-72
2023/03/20 04:10:43;;;;;;;;;;;;;;;4.20;65.03;95155.13;4994691;28;1309;-72
2023/03/20 04:13:10;;;;;;;;;;;;;;;4.14;64.96;95161.81;4994477;28;1914;-72
2023/03/20 04:15:41;;;;;;;;;;;;;;;4.11;65.20;95155.06;4994025;28;1177;-72
2023/03/20 04:18:11;;;;;;;;;;;;;;;4.16;65.35;95148.69;4994122;28;1264;-72
2023/03/20 04:20:43;;;;;;;;;;;;;;;4.12;64.70;95150.41;4994422;28;1337;-73
2023/03/20 04:23:11;;;;;;;;;;;;;;;3.97;64.64;95140.66;4995004;28;1138;-72
2023/03/20 04:25:41;;;;;;;;;;;;;;;3.85;64.96;95147.47;4995069;28;1219;-72
2023/03/20 04:28:15;;;;;;;;;;;;;;;3.82;65.56;95150.81;4998289;28;1078;-72
2023/03/20 04:30:46;;;;;;;;;;;;;;;3.87;65.67;95147.16;4998856;28;983;-72
2023/03/20 04:33:15;;;;;;;;;;;;;;;3.93;65.59;95153.31;4997944;28;1914;-71
2023/03/20 04:35:44;;;;;;;;;;;;;;;3.93;65.72;95150.59;4997707;28;1270;-72
2023/03/20 04:38:11;;;;;;;;;;;;;;;3.83;65.50;95163.34;4998037;28;1205;-72
2023/03/20 04:40:38;;;;;;;;;;;;;;;3.88;65.70;95164.34;4997814;28;1376;-72
2023/03/20 04:43:05;;;;;;;;;;;;;;;3.93;65.62;95178.69;4997272;28;1330;-72
2023/03/20 04:45:36;;;;;;;;;;;;;;;4.01;65.38;95179.88;4997530;28;1167;-72
2023/03/20 04:48:06;;;;;;;;;;;;;;;4.04;65.24;95182.78;4998077;28;1134;-72
2023/03/20 04:50:45;;;;;;;;;;;;;;;4.07;65.48;95187.63;4998895;28;984;-72
2023/03/20 04:53:19;;;;;;;;;;;;;;;4.15;65.00;95188.03;4998539;28;1967;-72
2023/03/20 04:55:49;;;;;;;;;;;;;;;4.16;65.02;95195.09;4997366;28;1159;-72
2023/03/20 04:58:18;;;;;;;;;;;;;;;4.20;65.31;95185.97;4997188;28;1078;-72
2023/03/20 05:00:46;;;;;;;;;;;;;;;4.23;65.24;95190.81;4998247;28;1163;-71
2023/03/20 05:03:14;;;;;;;;;;;;;;;4.16;65.01;95190.44;4997074;28;1294;-71
2023/03/20 05:05:42;;;;;;;;;;;;;;;4.12;65.29;95186.69;4997148;28;1113;-74
2023/03/20 05:08:12;;;;;;;;;;;;;;;4.02;65.07;95195.94;4997351;28;1126;-72
2023/03/20 05:10:43;;;;;;;;;;;;;;;4.04;66.22;95198.38;4996855;28;1296;-74
2023/03/20 05:13:14;;;;;;;;;;;;;;;4.12;66.12;95191.38;4996509;28;1975;-72
2023/03/20 05:15:42;;;;;;;;;;;;;;;4.23;66.01;95198.19;4997654;28;980;-72
2023/03/20 05:18:10;;;;;;;;;;;;;;;4.25;65.63;95199.50;4997035;28;1215;-72
2023/03/20 05:20:38;;;;;;;;;;;;;;;4.26;65.66;95206.56;4996566;28;1089;-71
2023/03/20 05:23:06;;;;;;;;;;;;;;;4.31;65.62;95203.72;4996993;28;1261;-72
2023/03/20 05:25:34;;;;;;;;;;;;;;;4.38;65.59;95203.28;4996738;28;1327;-72
2023/03/20 05:28:07;;;;;;;;;;;;;;;4.50;65.83;95200.81;4996299;28;1074;-72
2023/03/20 05:30:38;;;;;;;;;;;;;;;4.63;65.46;95204.56;4996891;28;1097;-73
2023/03/20 05:33:06;;;;;;;;;;;;;;;4.69;65.59;95200.59;4996313;28;1914;-72
2023/03/20 05:35:34;;;;;;;;;;;;;;;4.69;65.73;95195.16;4996334;28;1121;-72
2023/03/20 05:38:02;;;;;;;;;;;;;;;4.76;65.80;95206.44;4996178;28;1274;-72
2023/03/20 05:40:30;;;;;;;;;;;;;;;4.83;66.11;95201.34;4996396;28;1378;-72
2023/03/20 05:42:57;;;;;;;;;;;;;;;4.91;65.83;95204.44;4996207;28;1136;-72
2023/03/20 05:45:30;;;;;;;;;;;;;;;4.97;65.66;95205.88;4996274;28;1153;-72
2023/03/20 05:47:58;;;;;;;;;;;;;;;5.03;65.52;95197.25;4996221;28;1309;-74
2023/03/20 05:50:26;;;;;;;;;;;;;;;5.08;65.38;95193.56;4996130;28;1303;-74
2023/03/20 05:52:53;;;;;;;;;;;;;;;5.13;65.24;95209.84;4996553;28;1907;-73
2023/03/20 05:55:20;;;;;;;;;;;;;;;5.22;65.08;95204.41;4996238;28;1074;-72
2023/03/20 05:57:49;;;;;;;;;;;;;;;5.30;64.65;95211.81;4996116;28;1274;-72
2023/03/20 06:00:16;;;;;;;;;;;;;;;5.40;64.06;95208.81;4995879;28;1191;-72
2023/03/20 06:02:44;;;;;;;;;;;;;;;5.50;64.59;95200.31;4995473;28;1323;-71
2023/03/20 06:05:14;;;;;;;;;;;;;;;5.59;64.21;95203.06;4995815;28;1309;-72
2023/03/20 06:07:42;;;;;;;;;;;;;;;5.67;64.56;95196.84;4995837;28;1398;-73
2023/03/20 06:10:11;;;;;;;;;;;;;;;5.73;64.33;95203.75;4995641;28;1279;-72
2023/03/20 06:12:38;;;;;;;;;;;;;;;5.80;64.03;95204.09;4996016;28;1903;-72
2023/03/20 06:15:07;;;;;;;;;;;;;;;5.88;63.70;95205.25;4995879;28;1157;-72
2023/03/20 06:17:37;;;;;;;;;;;;;;;5.95;63.95;95207.53;4995696;28;1205;-72
2023/03/20 06:20:11;;;;;;;;;;;;;;;6.03;63.47;95199.34;4995969;28;1298;-72
2023/03/20 06:22:39;;;;;;;;;;;;;;;6.16;63.09;95197.56;4995582;28;1125;-72
2023/03/20 06:25:07;;;;;;;;;;;;;;;6.28;62.77;95199.66;4995778;28;1182;-72
2023/03/20 06:27:38;;;;;;;;;;;;;;;6.40;62.62;95199.84;4995499;28;1174;-72
2023/03/20 06:30:09;;;;;;;;;;;;;;;6.46;62.41;95203.19;4995687;28;1139;-72
2023/03/20 06:32:37;;;;;;;;;;;;;;;6.54;62.26;95207.88;4994935;28;1898;-72
2023/03/20 06:35:08;;;;;;;;;;;;;;;6.62;62.00;95211.75;4995646;28;1158;-72
2023/03/20 06:37:39;;;;;;;;;;;;;;;6.64;61.57;95210.28;4995439;28;1276;-71
2023/03/20 06:40:10;;;;;;;;;;;;;;;6.71;61.60;95210.59;4995169;28;1153;-71
2023/03/20 06:42:38;;;;;;;;;;;;;;;6.80;60.81;95210.59;4995443;28;1089;-72
2023/03/20 06:45:06;;;;;;;;;;;;;;;6.85;60.79;95201.38;4995009;28;1085;-72
2023/03/20 06:47:34;;;;;;;;;;;;;;;6.89;61.13;95202.34;4994949;28;1115;-72
2023/03/20 06:50:04;;;;;;;;;;;;;;;6.96;61.34;95208.13;4994331;28;1059;-72
2023/03/20 06:52:34;;;;;;;;;;;;;;;7.02;60.82;95189.56;4995319;28;1915;-71
2023/03/20 06:55:04;;;;;;;;;;;;;;;7.08;60.72;95189.06;4994715;28;1242;-72
2023/03/20 06:57:31;;;;;;;;;;;;;;;7.14;60.36;95198.72;4995092;28;1208;-73
2023/03/20 06:59:59;;;;;;;;;;;;;;;7.21;60.28;95198.22;4994868;28;1221;-72
2023/03/20 07:02:27;;;;;;;;;;;;;;;7.29;60.21;95199.31;4995432;28;1296;-72
2023/03/20 07:04:55;;;;;;;;;;;;;;;7.38;60.39;95197.34;4995138;28;1305;-72
2023/03/20 07:07:23;;;;;;;;;;;;;;;7.45;60.17;95195.69;4994968;28;1187;-72
2023/03/20 07:09:55;;;;;;;;;;;;;;;7.50;59.54;95202.94;4994942;28;1106;-73
2023/03/20 07:12:27;;;;;;;;;;;;;;;7.57;59.44;95189.50;4994928;28;1160;-72
2023/03/20 07:14:56;;;;;;;;;;;;;;;7.64;59.54;95191.75;4994481;28;1914;-71
2023/03/20 07:17:23;;;;;;;;;;;;;;;7.74;59.47;95182.31;4994445;28;1212;-70
2023/03/20 07:19:51;;;;;;;;;;;;;;;7.79;59.75;95185.66;4995073;28;1119;-71
2023/03/20 07:22:23;;;;;;;;;;;;;;;7.88;59.42;95189.19;4994817;28;1250;-72
2023/03/20 07:24:50;;;;;;;;;;;;;;;8.02;59.30;95188.09;4994716;28;1105;-71
2023/03/20 07:27:20;;;;;;;;;;;;;;;8.10;58.86;95181.78;4994519;28;1288;-71
2023/03/20 07:29:51;;;;;;;;;;;;;;;8.19;58.25;95193.50;4995490;28;1216;-71
2023/03/20 07:32:19;;;;;;;;;;;;;;;8.25;58.15;95183.91;4994737;28;1180;-71
2023/03/20 07:34:49;;;;;;;;;;;;;;;8.34;57.75;95192.06;4994773;28;1910;-71
2023/03/20 07:37:17;;;;;;;;;;;;;;;8.44;57.91;95192.50;4994723;28;1196;-71
2023/03/20 07:39:47;;;;;;;;;;;;;;;8.56;57.96;95182.72;4994655;28;1093;-71
2023/03/20 07:42:14;;;;;;;;;;;;;;;8.59;56.81;95185.59;4994659;28;1295;-71
2023/03/20 07:44:49;;;;;;;;;;;;;;;8.63;57.14;95192.00;4994667;28;1482;-71
2023/03/20 07:47:17;;;;;;;;;;;;;;;8.77;57.43;95197.22;4994663;28;1179;-71
2023/03/20 07:49:47;;;;;;;;;;;;;;;8.91;58.02;95194.19;4994573;28;1663;-71
2023/03/20 07:52:17;;;;;;;;;;;;;;;9.05;57.26;95189.19;4994542;28;1148;-71
2023/03/20 07:54:45;;;;;;;;;;;;;;;9.14;57.55;95191.84;4994428;28;1907;-71
2023/03/20 07:57:14;;;;;;;;;;;;;;;9.24;56.83;95185.09;4994682;28;1197;-71
2023/03/20 07:59:47;;;;;;;;;;;;;;;9.29;57.17;95180.16;4994550;28;1540;-71
2023/03/20 08:02:18;;;;;;;;;;;;;;;9.40;57.22;95184.09;4996630;28;1134;-71
2023/03/20 08:04:46;;;;;;;;;;;;;;;9.50;56.65;95180.06;4997957;28;1405;-71
2023/03/20 08:07:14;;;;;;;;;;;;;;;9.56;56.42;95186.97;4997923;28;1090;-71
2023/03/20 08:09:42;;;;;;;;;;;;;;;9.57;55.81;95182.25;4998116;28;1273;-71
2023/03/20 08:12:13;;;;;;;;;;;;;;;9.63;56.20;95176.19;4998080;28;1071;-71
2023/03/20 08:14:46;;;;;;;;;;;;;;;9.72;55.46;95178.81;4997912;28;1984;-71
2023/03/20 08:17:14;;;;;;;;;;;;;;;9.84;55.66;95172.50;4998000;28;1265;-72
2023/03/20 08:19:42;;;;;;;;;;;;;;;9.98;54.15;95180.41;4998031;28;1220;-72
2023/03/20 08:22:10;;;;;;;;;;;;;;;10.07;53.96;95183.84;4997708;28;1110;-73
2023/03/20 08:24:41;;;;;;;;;;;;;;;10.24;55.46;95174.50;4998217;28;1206;-74
2023/03/20 08:27:09;;;;;;;;;;;;;;;10.27;54.00;95182.91;4997945;28;1173;-72
2023/03/20 08:29:39;;;;;;;;;;;;;;;10.34;53.46;95185.88;4997898;28;1303;-74
2023/03/20 08:32:09;;;;;;;;;;;;;;;10.46;53.39;95185.06;4997788;28;1227;-73
2023/03/20 08:34:39;;;;;;;;;;;;;;;10.53;52.79;95179.75;4998150;28;1910;-73
2023/03/20 08:37:08;;;;;;;;;;;;;;;10.61;50.93;95186.28;4997908;28;1264;-72
2023/03/20 08:39:38;;;;;;;;;;;;;;;10.77;52.56;95178.84;4997282;28;1248;-72
2023/03/20 08:42:08;;;;;;;;;;;;;;;10.88;52.33;95179.13;4997605;28;1079;-74
2023/03/20 08:44:37;;;;;;;;;;;;;;;11.03;53.04;95174.81;4997522;28;1415;-72
2023/03/20 08:47:06;;;;;;;;;;;;;;;11.24;53.79;95169.84;4997602;28;1114;-72
2023/03/20 08:49:40;;;;;;;;;;;;;;;11.54;56.53;95175.75;4997560;28;1112;-72
2023/03/20 08:52:08;;;;;;;;;;;;;;;11.83;54.63;95170.94;4997095;28;1306;-72
2023/03/20 08:54:36;;;;;;;;;;;;;;;11.91;53.42;95169.97;4998268;28;1973;-72
2023/03/20 08:57:04;;;;;;;;;;;;;;;11.86;52.87;95175.78;4997874;28;1069;-73
2023/03/20 08:59:33;;;;;;;;;;;;;;;11.75;51.40;95175.47;4998280;28;1073;-72
2023/03/20 09:02:01;;;;;;;;;;;;;;;11.69;52.44;95173.34;4997015;28;1069;-73
2023/03/20 09:04:29;;;;;;;;;;;;;;;11.73;51.20;95166.75;4996402;28;1307;-73
2023/03/20 09:07:02;;;;;;;;;;;;;;;11.81;50.95;95163.00;4997546;28;1218;-73
2023/03/20 09:09:34;;;;;;;;;;;;;;;11.94;52.29;95162.91;4997720;28;1083;-74
2023/03/20 09:12:01;;;;;;;;;;;;;;;12.02;49.27;95156.41;4997578;28;737;-72
2023/03/20 09:14:30;;;;;;;;;;;;;;;12.13;50.79;95154.69;4997491;28;1907;-72
2023/03/20 09:17:00;;;;;;;;;;;;;;;12.20;50.28;95162.31;4997584;28;1066;-73
2023/03/20 09:19:28;;;;;;;;;;;;;;;12.32;50.45;95159.44;4996861;28;1169;-72
2023/03/20 09:22:04;;;;;;;;;;;;;;;12.42;49.68;95153.34;4996733;28;1407;-72
2023/03/20 09:24:32;;;;;;;;;;;;;;;12.49;50.26;95150.75;4997689;28;971;-72
2023/03/20 09:27:01;;;;;;;;;;;;;;;12.68;49.78;95138.06;4996820;28;1192;-72
2023/03/20 09:29:32;;;;;;;;;;;;;;;12.67;48.08;95139.22;4980121;28;1200;-72
2023/03/20 09:31:59;;;;;;;;;;;;;;;12.73;48.63;95133.03;4997477;28;1007;-72
2023/03/20 09:34:28;;;;;;;;;;;;;;;12.83;48.26;95130.84;4997094;28;1911;-72
2023/03/20 09:36:56;;;;;;;;;;;;;;;12.86;48.07;95133.69;4996723;28;1481;-72
2023/03/20 09:39:27;;;;;;;;;;;;;;;13.05;48.63;95126.50;4996116;28;1217;-71
2023/03/20 09:41:56;;;;;;;;;;;;;;;13.21;46.91;95125.22;4996124;28;1106;-72
2023/03/20 09:44:27;;;;;;;;;;;;;;;13.36;48.21;95119.97;4996084;28;1261;-72
2023/03/20 09:47:08;;;;;;;;;;;;;;;13.48;47.03;95108.72;4996099;28;1288;-72
2023/03/20 09:50:02;;;;;;;;;;;;;;;13.63;50.15;95106.97;4996108;28;1193;-71
2023/03/20 09:52:33;;;;;;;;;;;;;;;13.99;49.61;95091.69;4996601;28;1426;-72
2023/03/20 09:55:06;;;;;;;;;;;;;;;14.13;48.51;95089.09;4996306;28;1914;-71
2023/03/20 09:57:37;;;;;;;;;;;;;;;14.20;47.15;95080.88;4996269;28;1093;-71
2023/03/20 10:00:06;;;;;;;;;;;;;;;14.29;49.08;95083.38;4996112;28;1207;-71
2023/03/20 10:02:43;;;;;;;;;;;;;;;14.39;47.41;95068.03;4996132;28;1206;-71
2023/03/20 10:05:20;;;;;;;;;;;;;;;14.55;47.59;95065.09;4997027;28;948;-72
2023/03/20 10:07:50;;;;;;;;;;;;;;;14.74;46.89;95059.34;4995699;28;1119;-73
2023/03/20 10:10:22;;;;;;;;;;;;;;;14.79;46.30;95053.47;4995491;28;1265;-73
2023/03/20 10:12:51;;;;;;;;;;;;;;;14.94;48.10;95054.41;4995907;28;1403;-72
2023/03/20 10:15:25;;;;;;;;;;;;;;;15.03;46.39;95054.09;4995956;28;1910;-72
2023/03/20 10:17:54;;;;;;;;;;;;;;;15.21;45.87;95046.72;4995690;28;1280;-72
2023/03/20 10:20:27;;;;;;;;;;;;;;;15.27;44.29;95052.75;4995992;28;1137;-72
2023/03/20 10:22:58;;;;;;;;;;;;;;;15.39;45.81;95042.13;4995483;28;1231;-72
2023/03/20 10:25:32;;;;;;;;;;;;;;;15.53;45.79;95052.56;4994878;28;1395;-72
2023/03/20 10:28:00;;;;;;;;;;;;;;;15.64;45.78;95042.31;4995538;28;1157;-72
2023/03/20 10:30:33;;;;;;;;;;;;;;;15.72;44.80;95040.41;4996004;28;1261;-73
2023/03/20 10:33:07;;;;;;;;;;;;;;;15.83;41.80;95026.56;4995225;28;1192;-74
2023/03/20 10:35:37;;;;;;;;;;;;;;;15.93;42.91;95036.19;4995348;28;1972;-72
2023/03/20 10:38:12;;;;;;;;;;;;;;;16.07;44.46;95025.13;4995347;28;991;-72
2023/03/20 10:40:43;;;;;;;;;;;;;;;16.13;41.92;95029.16;5012094;28;1184;-72
2023/03/20 10:43:14;;;;;;;;;;;;;;;16.07;42.68;95025.13;4996154;28;1282;-72
2023/03/20 10:45:43;;;;;;;;;;;;;;;16.10;43.84;95022.38;4995685;28;1217;-72
2023/03/20 10:48:14;;;;;;;;;;;;;;;16.21;43.88;95014.09;4996068;28;1263;-73
2023/03/20 10:50:43;;;;;;;;;;;;;;;16.39;43.19;95005.81;4995386;28;1441;-72
2023/03/20 10:53:17;;;;;;;;;;;;;;;16.45;41.07;95007.03;4995207;28;1197;-72
2023/03/20 10:55:47;;;;;;;;;;;;;;;16.53;41.32;94999.50;4994640;28;1922;-73
2023/03/20 10:58:19;;;;;;;;;;;;;;;16.66;41.21;95003.50;4995277;28;1207;-72
2023/03/20 11:00:47;;;;;;;;;;;;;;;16.68;40.71;95000.34;4995190;28;1146;-71
2023/03/20 11:03:20;;;;;;;;;;;;;;;16.83;41.11;94999.19;4995185;28;1164;-72
2023/03/20 11:05:50;;;;;;;;;;;;;;;17.03;42.31;94999.63;4994660;28;1121;-72
2023/03/20 11:08:16;;;;;;;;;;;;;;;17.09;39.57;94989.69;4994912;28;1342;-72
2023/03/20 11:10:52;;;;;;;;;;;;;;;17.20;40.85;94987.69;4995906;28;1295;-72
2023/03/20 11:13:23;;;;;;;;;;;;;;;17.39;39.31;94980.13;4995352;28;1177;-72
2023/03/20 11:15:52;;;;;;;;;;;;;;;17.43;37.59;94973.38;4994890;28;1926;-71
2023/03/20 11:18:20;;;;;;;;;;;;;;;17.61;39.29;94969.75;4996350;28;952;-71
2023/03/20 11:20:52;;;;;;;;;;;;;;;17.79;38.25;94967.75;4995595;28;1195;-71
2023/03/20 11:23:21;;;;;;;;;;;;;;;17.85;37.42;94960.56;4995791;28;1094;-72
2023/03/20 11:25:52;;;;;;;;;;;;;;;17.82;37.17;94963.38;4995870;28;1233;-71
2023/03/20 11:28:25;;;;;;;;;;;;;;;17.91;38.37;94956.19;4995925;28;1311;-71
2023/03/20 11:31:00;;;;;;;;;;;;;;;18.09;36.62;94944.97;4996120;28;1204;-71
2023/03/20 11:33:28;;;;;;;;;;;;;;;18.28;36.29;94943.69;4995159;28;1101;-71
2023/03/20 11:35:57;;;;;;;;;;;;;;;18.42;36.21;94946.41;4996844;28;1914;-71
2023/03/20 11:38:25;;;;;;;;;;;;;;;18.63;35.38;94937.13;4999742;28;1109;-71
2023/03/20 11:40:54;;;;;;;;;;;;;;;18.63;36.46;94933.53;4998887;28;1092;-72
2023/03/20 11:43:25;;;;;;;;;;;;;;;18.75;35.56;94933.09;4998954;28;1065;-72
2023/03/20 11:45:55;;;;;;;;;;;;;;;18.96;36.95;94923.78;4998805;28;1099;-71
2023/03/20 11:48:26;;;;;;;;;;;;;;;19.14;35.50;94915.25;4999092;28;1275;-71
2023/03/20 11:50:57;;;;;;;;;;;;;;;19.15;35.14;94912.03;4998180;28;1277;-71
2023/03/20 11:53:26;;;;;;;;;;;;;;;19.14;33.81;94909.66;4999032;28;1291;-72
2023/03/20 11:56:07;;;;;;;;;;;;;;;19.20;33.36;94907.97;4998494;28;1966;-72
2023/03/20 11:58:36;;;;;;;;;;;;;;;19.40;34.92;94899.84;4999593;28;1007;-71
2023/03/20 12:01:05;;;;;;;;;;;;;;;19.53;33.77;94903.69;4998808;28;1125;-71
2023/03/20 12:03:40;;;;;;;;;;;;;;;19.66;34.45;94901.19;4998476;28;1199;-71
2023/03/20 12:06:12;;;;;;;;;;;;;;;19.81;32.77;94893.44;4998423;28;1136;-71
2023/03/20 12:08:39;;;;;;;;;;;;;;;19.86;32.42;94887.38;4998713;28;1112;-72
2023/03/20 12:11:18;;;;;;;;;;;;;;;20.03;32.89;94886.38;4998692;28;1280;-72
2023/03/20 12:13:46;;;;;;;;;;;;;;;20.17;34.16;94875.00;4999575;28;1020;-72
2023/03/20 12:16:15;;;;;;;;;;;;;;;20.40;33.30;94879.09;4998619;28;1983;-72
2023/03/20 12:18:43;;;;;;;;;;;;;;;20.57;32.75;94874.50;4998380;28;1271;-72
2023/03/20 12:21:12;;;;;;;;;;;;;;;20.72;31.45;94875.06;4998291;28;1084;-71
2023/03/20 12:23:42;;;;;;;;;;;;;;;20.79;30.47;94878.56;4998106;28;1138;-72
2023/03/20 12:26:13;;;;;;;;;;;;;;;20.81;29.96;94876.13;4998096;28;1110;-71
2023/03/20 12:28:46;;;;;;;;;;;;;;;20.81;30.56;94872.53;4997780;28;1210;-71
2023/03/20 12:31:19;;;;;;;;;;;;;;;20.72;29.81;94869.47;4998048;28;1189;-72
2023/03/20 12:33:50;;;;;;;;;;;;;;;20.73;30.01;94863.44;4997852;28;1219;-72
2023/03/20 12:36:18;;;;;;;;;;;;;;;20.86;29.45;94858.84;4997994;28;1907;-71
2023/03/20 12:38:50;;;;;;;;;;;;;;;20.96;30.04;94857.09;4998736;28;1171;-71
2023/03/20 12:41:24;;;;;;;;;;;;;;;21.13;29.76;94841.97;4998827;28;1000;-71
2023/03/20 12:44:15;;;;;;;;;;;;;;;21.01;28.75;94845.38;4998362;28;1085;-72
2023/03/20 12:46:45;;;;;;;;;;;;;;;21.15;28.69;94842.31;4998911;28;1046;-71
2023/03/20 12:49:15;;;;;;;;;;;;;;;21.31;28.46;94832.44;4999008;28;797;-71
2023/03/20 12:51:46;;;;;;;;;;;;;;;21.39;28.57;94828.34;4999345;28;1102;-71
2023/03/20 12:54:23;;;;;;;;;;;;;;;21.35;27.52;94833.19;4998494;28;1428;-71
2023/03/20 12:57:07;;;;;;;;;;;;;;;21.26;26.62;94827.34;4998691;28;1919;-71
2023/03/20 13:00:00;;;;;;;;;;;;;;;21.19;25.24;94819.84;4999226;28;903;-71
2023/03/20 13:02:34;;;;;;;;;;;;;;;21.17;26.74;94827.91;5014359;28;1430;-71
2023/03/20 13:05:07;;;;;;;;;;;;;;;21.06;25.79;94821.66;4998082;28;1226;-72
2023/03/20 13:08:02;;;;;;;;;;;;;;;21.06;27.39;94807.63;4997674;28;1100;-72
2023/03/20 13:10:31;;;;;;;;;;;;;;;21.18;27.16;94812.66;4998167;28;1183;-71
2023/03/20 13:13:07;;;;;;;;;;;;;;;21.31;27.05;94810.00;4996626;28;1414;-72
2023/03/20 13:15:47;;;;;;;;;;;;;;;21.39;26.08;94801.06;4997332;28;1980;-72
2023/03/20 13:18:16;;;;;;;;;;;;;;;21.53;26.51;94800.00;4997168;28;1390;-72
2023/03/20 13:20:45;;;;;;;;;;;;;;;21.71;26.15;94793.22;4998364;28;855;-71
2023/03/20 13:23:17;;;;;;;;;;;;;;;21.82;25.67;94791.81;4996609;28;1458;-71